Time;durP1;ratioP1;P1;durP2;ratioP2;P2;SDS_P1;SDS_P2;PMS_P1;PMS_P2;Temp;Humidity;BMP_temperature;BMP_pressure;BME280_temperature;BME280_humidity;BME280_pressure;Samples;Min_cycle;Max_cycle;Signal;HPM_P1;HPM_P2
2022/05/22 00:00:43;;;;;;;7.03;3.30;;;;;;;12.30;72.72;101854.81;5010844;28;20032;-77
2022/05/22 00:03:08;;;;;;;12.13;4.10;;;;;;;12.30;72.76;101854.81;5010810;28;20018;-77
2022/05/22 00:05:34;;;;;;;8.73;3.40;;;;;;;12.30;72.51;101855.66;5013046;28;20455;-77
2022/05/22 00:07:59;;;;;;;7.55;3.72;;;;;;;12.29;73.47;101853.97;5012136;28;20026;-77
2022/05/22 00:10:24;;;;;;;7.28;3.42;;;;;;;12.28;73.11;101849.63;5013027;28;20034;-77
2022/05/22 00:12:49;;;;;;;7.82;3.50;;;;;;;12.24;73.35;101840.13;5010434;28;20029;-77
2022/05/22 00:15:16;;;;;;;7.22;3.40;;;;;;;12.21;73.76;101837.56;5012287;28;20034;-77
2022/05/22 00:17:42;;;;;;;9.00;3.70;;;;;;;12.16;73.70;101841.97;5013012;28;20038;-77
2022/05/22 00:20:09;;;;;;;8.48;3.50;;;;;;;12.12;73.00;101835.13;5011659;28;20029;-77
2022/05/22 00:22:35;;;;;;;7.97;3.60;;;;;;;12.11;73.64;101830.78;5012833;28;20054;-77
2022/05/22 00:25:00;;;;;;;6.53;3.45;;;;;;;12.10;73.99;101827.28;5011454;28;20489;-77
2022/05/22 00:27:26;;;;;;;5.70;3.47;;;;;;;12.12;73.63;101828.13;5010366;28;20076;-77
2022/05/22 00:29:52;;;;;;;7.78;3.50;;;;;;;12.12;73.44;101819.47;5025546;28;20393;-77
2022/05/22 00:32:17;;;;;;;8.15;3.58;;;;;;;12.07;74.00;101822.13;5011916;28;20033;-77
2022/05/22 00:34:42;;;;;;;6.45;3.35;;;;;;;12.07;74.21;101816.06;5011509;28;20040;-77
2022/05/22 00:37:08;;;;;;;9.20;3.65;;;;;;;12.07;73.91;101819.50;5010489;28;20462;-77
2022/05/22 00:39:35;;;;;;;5.15;3.20;;;;;;;12.04;73.70;101814.34;5011223;28;20034;-77
2022/05/22 00:42:01;;;;;;;8.00;3.20;;;;;;;11.99;74.14;101814.41;5008544;28;20448;-77
2022/05/22 00:44:26;;;;;;;7.88;3.50;;;;;;;11.98;74.48;101812.69;5011886;28;20026;-77
2022/05/22 00:46:52;;;;;;;11.23;3.60;;;;;;;11.97;74.50;101816.16;5012657;28;20488;-77
2022/05/22 00:49:31;;;;;;;8.23;3.88;;;;;;;11.97;74.32;101816.16;5010339;28;20049;-77
2022/05/22 00:52:04;;;;;;;6.45;3.78;;;;;;;11.95;74.14;101807.53;5012617;28;20038;-77
2022/05/22 00:54:58;;;;;;;6.78;3.78;;;;;;;11.94;73.60;101815.34;5010998;28;20381;-77
2022/05/22 00:57:33;;;;;;;9.15;4.10;;;;;;;11.93;73.94;101816.25;5007980;28;20121;-77
2022/05/22 01:00:03;;;;;;;7.40;3.95;;;;;;;11.93;74.18;101817.13;5010622;28;20080;-77
2022/05/22 01:03:26;;;;;;;8.73;3.72;;;;;;;11.94;74.37;101815.34;5010604;28;20030;-77
2022/05/22 01:05:14;;;;;;;6.05;3.80;;;;;;;11.93;73.84;101809.28;5008778;28;20107;-77
2022/05/22 01:07:39;;;;;;;8.00;4.10;;;;;;;11.88;73.94;101803.28;5011370;28;20026;-77
2022/05/22 01:10:04;;;;;;;7.00;3.78;;;;;;;11.83;73.68;101792.06;5011074;28;20460;-77
2022/05/22 01:12:30;;;;;;;4.93;3.78;;;;;;;11.77;73.92;101795.63;5010927;28;20025;-77
2022/05/22 01:14:55;;;;;;;5.85;3.90;;;;;;;11.76;74.37;101803.47;5010094;28;20034;-77
2022/05/22 01:17:21;;;;;;;8.13;3.90;;;;;;;11.72;74.75;101804.41;5009985;28;20476;-77
2022/05/22 01:19:58;;;;;;;7.78;3.83;;;;;;;11.68;74.53;101804.44;5008024;28;20030;-77
2022/05/22 01:22:23;;;;;;;6.57;3.70;;;;;;;11.66;74.13;101811.41;5011675;28;20028;-77
2022/05/22 01:24:49;;;;;;;8.25;4.20;;;;;;;11.65;74.55;101814.06;5009660;28;20025;-77
2022/05/22 01:27:17;;;;;;;7.75;4.07;;;;;;;11.63;74.60;101810.59;5010789;28;20041;-77
2022/05/22 01:29:43;;;;;;;8.73;4.35;;;;;;;11.64;74.55;101807.13;5009652;28;20261;-77
2022/05/22 01:32:08;;;;;;;7.50;3.78;;;;;;;11.63;74.63;101802.78;5011095;28;20112;-77
2022/05/22 01:34:33;;;;;;;7.22;3.92;;;;;;;11.61;74.42;101802.81;5009202;28;20088;-77
2022/05/22 01:36:59;;;;;;;9.55;4.15;;;;;;;11.57;74.20;101795.06;5010337;28;20501;-77
2022/05/22 01:39:24;;;;;;;7.72;4.15;;;;;;;11.56;73.97;101788.13;5009666;28;20033;-77
2022/05/22 01:41:50;;;;;;;6.55;4.03;;;;;;;11.51;74.68;101790.78;5009123;28;20030;-77
2022/05/22 01:44:16;;;;;;;8.75;4.00;;;;;;;11.49;74.14;101792.56;5009231;28;20057;-77
2022/05/22 01:46:41;;;;;;;9.07;4.25;;;;;;;11.45;74.45;101791.75;5011297;28;20072;-77
2022/05/22 01:49:07;;;;;;;7.47;3.90;;;;;;;11.41;74.32;101789.22;5009096;28;20048;-77
2022/05/22 01:51:36;;;;;;;9.73;4.50;;;;;;;11.36;74.37;101782.31;5010425;28;20374;-77
2022/05/22 01:54:03;;;;;;;7.85;4.05;;;;;;;11.33;74.96;101782.34;5008971;28;20037;-77
2022/05/22 01:56:30;;;;;;;7.07;4.10;;;;;;;11.28;74.14;101772.88;5008050;28;20033;-77
2022/05/22 01:58:55;;;;;;;5.28;3.83;;;;;;;11.23;74.47;101772.94;5009589;28;20068;-77
2022/05/22 02:01:20;;;;;;;6.85;3.60;;;;;;;11.15;74.25;101772.19;5009766;28;20053;-77
2022/05/22 02:03:45;;;;;;;6.55;3.75;;;;;;;11.12;75.07;101777.41;5009869;28;20382;-77
2022/05/22 02:06:11;;;;;;;7.38;4.13;;;;;;;11.10;75.18;101774.00;5009419;28;20026;-77
2022/05/22 02:08:38;;;;;;;8.32;3.78;;;;;;;11.06;75.91;101779.25;5010003;28;20366;-77
2022/05/22 02:11:06;;;;;;;6.43;3.65;;;;;;;11.04;75.89;101775.78;5009121;28;20034;-77
2022/05/22 02:13:43;;;;;;;8.05;4.15;;;;;;;11.04;75.63;101767.97;5010076;28;20030;-77
2022/05/22 02:16:08;;;;;;;6.63;3.97;;;;;;;11.03;76.00;101763.66;5007506;28;20536;-77
2022/05/22 02:18:33;;;;;;;6.32;4.65;;;;;;;11.02;74.77;101761.94;5008329;28;20029;-77
2022/05/22 02:20:59;;;;;;;6.18;3.92;;;;;;;11.00;75.14;101753.28;5010000;28;20038;-77
2022/05/22 02:23:24;;;;;;;9.60;4.57;;;;;;;10.99;74.98;101758.50;5010319;28;20084;-77
2022/05/22 02:25:52;;;;;;;7.78;4.20;;;;;;;10.95;74.98;101749.84;5009241;28;20033;-77
2022/05/22 02:28:18;;;;;;;7.75;4.18;;;;;;;10.93;74.66;101746.44;5008404;28;20029;-77
2022/05/22 02:30:47;;;;;;;7.57;4.03;;;;;;;10.87;74.61;101744.75;5010806;28;20041;-77
2022/05/22 02:33:13;;;;;;;5.97;3.78;;;;;;;10.81;75.02;101739.63;5009550;28;20053;-77
2022/05/22 02:35:40;;;;;;;6.22;3.67;;;;;;;10.80;75.26;101737.03;5009080;28;20569;-77
2022/05/22 02:38:06;;;;;;;8.13;3.92;;;;;;;10.76;75.07;101736.22;5008394;28;20408;-77
2022/05/22 02:40:33;;;;;;;6.93;3.65;;;;;;;10.72;75.48;101732.81;5008962;28;20029;-77
2022/05/22 02:43:00;;;;;;;8.32;3.85;;;;;;;10.68;75.90;101730.22;5007853;28;20092;-77
2022/05/22 02:45:29;;;;;;;7.05;3.88;;;;;;;10.63;75.65;101741.56;5010294;28;20030;-77
2022/05/22 02:47:54;;;;;;;7.40;3.80;;;;;;;10.57;75.51;101728.63;5009222;28;20041;-77
2022/05/22 02:50:22;;;;;;;4.60;3.20;;;;;;;10.53;75.24;101726.94;5010059;28;20129;-77
2022/05/22 02:52:48;;;;;;;4.88;3.60;;;;;;;10.54;75.20;101722.59;5007362;28;20036;-77
2022/05/22 02:55:13;;;;;;;6.57;4.10;;;;;;;10.54;75.71;101707.00;5010439;28;20038;-77
2022/05/22 02:57:40;;;;;;;5.28;3.85;;;;;;;10.53;75.00;101710.47;5007373;28;20511;-77
2022/05/22 03:00:32;;;;;;;4.30;3.20;;;;;;;10.51;74.41;101728.69;5007816;28;20108;-77
2022/05/22 03:02:58;;;;;;;4.45;2.53;;;;;;;10.46;75.86;101731.34;5006769;28;20393;-77
2022/05/22 03:05:26;;;;;;;4.65;2.70;;;;;;;10.41;75.93;101727.94;5008712;28;20029;-77
2022/05/22 03:07:52;;;;;;;2.92;2.40;;;;;;;10.35;75.90;101727.09;5007288;28;20030;-77
2022/05/22 03:10:17;;;;;;;4.35;2.15;;;;;;;10.27;75.38;101729.78;5006773;28;20500;-76
2022/05/22 03:12:43;;;;;;;3.90;2.10;;;;;;;10.25;75.81;101731.53;5007224;28;20108;-77
2022/05/22 03:15:10;;;;;;;4.10;2.83;;;;;;;10.18;76.20;101721.22;5009918;28;20037;-77
2022/05/22 03:17:36;;;;;;;4.65;2.95;;;;;;;10.12;75.86;101728.22;5007329;28;20033;-77
2022/05/22 03:20:02;;;;;;;4.03;2.78;;;;;;;10.08;75.88;101729.94;5008624;28;20342;-77
2022/05/22 03:22:28;;;;;;;5.25;3.20;;;;;;;10.08;76.15;101723.91;5009218;28;20048;-76
2022/05/22 03:24:54;;;;;;;7.97;4.30;;;;;;;10.07;76.77;101719.59;5007830;28;20109;-77
2022/05/22 03:27:21;;;;;;;7.72;4.57;;;;;;;10.08;77.43;101721.31;5007757;28;20431;-77
2022/05/22 03:29:48;;;;;;;6.20;4.15;;;;;;;10.11;76.61;101716.09;5008869;28;20022;-77
2022/05/22 03:32:14;;;;;;;4.65;3.45;;;;;;;10.11;75.82;101711.72;5009235;28;20034;-77
2022/05/22 03:34:40;;;;;;;4.18;3.20;;;;;;;10.10;76.01;101716.97;5009023;28;20033;-77
2022/05/22 03:37:06;;;;;;;6.07;3.72;;;;;;;10.10;75.94;101711.75;5007392;28;20033;-77
2022/05/22 03:39:32;;;;;;;5.65;4.03;;;;;;;10.09;76.59;101708.28;5006349;28;20034;-77
2022/05/22 03:41:58;;;;;;;6.70;3.80;;;;;;;10.08;76.70;101714.34;5009338;28;20099;-77
2022/05/22 03:44:23;;;;;;;7.72;3.80;;;;;;;10.11;76.70;101706.53;4990477;28;20026;-76
2022/05/22 03:46:49;;;;;;;9.07;4.03;;;;;;;10.10;76.22;101712.59;5007879;28;20031;-77
2022/05/22 03:49:14;;;;;;;7.50;4.63;;;;;;;10.11;76.38;101703.09;5008983;28;20042;-77
2022/05/22 03:51:41;;;;;;;9.40;5.20;;;;;;;10.12;76.80;101705.66;5006934;28;20322;-77
2022/05/22 03:54:07;;;;;;;12.32;5.45;;;;;;;10.13;76.78;101701.34;5007556;28;20032;-77
2022/05/22 03:56:32;;;;;;;7.32;4.72;;;;;;;10.11;76.69;101695.28;5006132;28;20382;-77
2022/05/22 03:58:57;;;;;;;8.07;4.57;;;;;;;10.10;76.54;101696.16;5008144;28;20030;-77
2022/05/22 04:01:23;;;;;;;8.25;4.80;;;;;;;10.10;77.09;101698.75;5008383;28;20041;-77
2022/05/22 04:03:48;;;;;;;7.95;5.00;;;;;;;10.08;77.55;101690.94;5007266;28;20089;-77
2022/05/22 04:06:13;;;;;;;6.03;4.22;;;;;;;10.06;77.26;101705.72;5004986;28;20045;-77
2022/05/22 04:08:39;;;;;;;7.07;4.60;;;;;;;10.06;76.49;101705.72;5009557;28;20461;-77
2022/05/22 04:11:13;;;;;;;7.30;4.20;;;;;;;10.03;76.73;101705.75;5006364;28;20038;-77
2022/05/22 04:13:39;;;;;;;6.10;4.40;;;;;;;10.01;77.01;101707.50;5006179;28;20049;-77
2022/05/22 04:16:04;;;;;;;6.53;4.35;;;;;;;10.00;77.42;101706.63;5008411;28;20065;-77
2022/05/22 04:18:30;;;;;;;9.05;4.18;;;;;;;10.02;77.51;101701.44;5012044;28;20381;-77
2022/05/22 04:20:55;;;;;;;6.88;4.45;;;;;;;10.03;77.70;101700.56;5011448;28;20084;-77
2022/05/22 04:26:05;;;;;;;6.55;4.82;;;;;;;10.08;77.96;101688.34;5009564;28;20483;-77
2022/05/22 04:28:31;;;;;;;6.00;4.00;;;;;;;10.11;77.64;101693.53;5012141;28;20034;-77
2022/05/22 04:30:57;;;;;;;4.68;4.18;;;;;;;10.10;77.60;101681.41;5011426;28;20033;-77
2022/05/22 04:33:24;;;;;;;6.25;4.07;;;;;;;10.13;77.62;101691.78;5012413;28;20404;-77
2022/05/22 04:35:49;;;;;;;6.47;4.07;;;;;;;10.14;77.62;101685.69;5011350;28;20084;-77
2022/05/22 04:38:15;;;;;;;6.50;4.47;;;;;;;10.17;78.15;101682.19;5010791;28;20053;-77
2022/05/22 04:40:41;;;;;;;7.18;4.35;;;;;;;10.19;78.27;101688.25;5009442;28;20038;-77
2022/05/22 04:43:09;;;;;;;6.22;4.93;;;;;;;10.26;78.25;101683.84;5012087;28;20117;-77
2022/05/22 04:45:38;;;;;;;7.32;5.10;;;;;;;10.30;78.38;101683.81;5009121;28;20450;-77
2022/05/22 04:48:04;;;;;;;10.77;5.88;;;;;;;10.35;78.56;101685.47;5010214;28;20116;-77
2022/05/22 04:50:29;;;;;;;10.48;6.53;;;;;;;10.36;78.75;101684.59;5011656;28;20033;-77
2022/05/22 04:52:55;;;;;;;8.63;5.50;;;;;;;10.36;78.66;101695.88;5010520;28;20113;-77
2022/05/22 04:55:20;;;;;;;10.30;6.20;;;;;;;10.37;79.13;101695.00;5008674;28;20115;-77
2022/05/22 04:57:45;;;;;;;10.88;6.25;;;;;;;10.40;78.95;101700.22;5010413;28;20068;-77
2022/05/22 05:00:11;;;;;;;10.55;7.65;;;;;;;10.44;79.04;101683.66;5012619;28;20030;-77
2022/05/22 05:02:37;;;;;;;10.70;6.25;;;;;;;10.47;79.27;101682.78;5005625;28;20018;-77
2022/05/22 05:05:05;;;;;;;13.73;7.45;;;;;;;10.53;79.45;101679.25;5008727;28;20496;-77
2022/05/22 05:07:31;;;;;;;10.63;8.07;;;;;;;10.61;79.12;101682.59;5010297;28;20436;-77
2022/05/22 05:09:56;;;;;;;11.98;8.10;;;;;;;10.67;79.12;101686.91;5010141;28;20484;-77
2022/05/22 05:12:22;;;;;;;14.07;7.80;;;;;;;10.71;79.25;101678.16;5009100;28;20496;-77
2022/05/22 05:14:47;;;;;;;9.38;7.60;;;;;;;10.76;79.58;101682.41;5010519;28;20129;-77
2022/05/22 05:17:15;;;;;;;11.73;7.75;;;;;;;10.81;79.35;101679.75;5010037;28;20030;-77
2022/05/22 05:19:41;;;;;;;12.70;7.72;;;;;;;10.87;79.27;101689.22;5011582;28;20032;-76
2022/05/22 05:22:06;;;;;;;12.57;7.88;;;;;;;10.93;79.39;101681.34;5007505;28;20038;-77
2022/05/22 05:24:32;;;;;;;12.25;8.23;;;;;;;11.01;79.30;101681.25;5010051;28;20084;-77
2022/05/22 05:26:57;;;;;;;13.48;8.57;;;;;;;11.06;79.80;101677.69;5009918;28;20535;-77
2022/05/22 05:29:23;;;;;;;13.30;8.82;;;;;;;11.12;79.79;101688.88;5010654;28;20057;-77
2022/05/22 05:31:48;;;;;;;10.75;8.20;;;;;;;11.16;80.01;101680.13;5009563;28;20030;-77
2022/05/22 05:34:14;;;;;;;13.82;8.85;;;;;;;11.20;79.85;101682.66;5009949;28;20041;-77
2022/05/22 05:36:41;;;;;;;11.30;8.70;;;;;;;11.26;79.52;101686.09;5008928;28;20026;-77
2022/05/22 05:39:08;;;;;;;13.02;8.43;;;;;;;11.30;79.54;101683.41;5011645;28;20994;-77
2022/05/22 05:41:37;;;;;;;14.48;8.05;;;;;;;11.37;79.23;101689.38;5011489;28;20050;-77
2022/05/22 05:44:06;;;;;;;12.65;8.32;;;;;;;11.44;79.47;101684.94;5010621;28;20057;-77
2022/05/22 05:46:35;;;;;;;13.80;8.90;;;;;;;11.49;79.57;101680.50;5008604;28;20033;-77
2022/05/22 05:49:02;;;;;;;12.10;9.43;;;;;;;11.56;79.52;101684.75;5009049;28;20579;-77
2022/05/22 05:51:27;;;;;;;12.15;8.82;;;;;;;11.62;79.16;101687.22;5010877;28;20091;-77
2022/05/22 05:53:52;;;;;;;12.60;8.40;;;;;;;11.68;79.29;101686.28;5010222;28;20030;-77
2022/05/22 05:56:18;;;;;;;13.13;8.63;;;;;;;11.76;79.30;101687.00;5010022;28;20075;-77
2022/05/22 05:58:43;;;;;;;13.18;8.88;;;;;;;11.83;79.26;101683.44;5007048;28;20029;-77
2022/05/22 06:01:13;;;;;;;11.35;8.38;;;;;;;11.91;79.79;101685.91;5006790;28;20026;-76
2022/05/22 06:03:39;;;;;;;12.00;8.40;;;;;;;12.01;79.59;101685.75;5008583;28;20057;-76
2022/05/22 06:06:09;;;;;;;12.68;7.97;;;;;;;12.06;79.12;101684.78;5007939;28;20567;-77
2022/05/22 06:08:36;;;;;;;13.45;7.82;;;;;;;12.13;79.60;101689.00;5006303;28;20033;-77
2022/05/22 06:11:01;;;;;;;11.80;7.88;;;;;;;12.19;78.61;101695.84;5009466;28;20030;-77
2022/05/22 06:13:26;;;;;;;12.57;8.23;;;;;;;12.28;78.93;101695.69;5004011;28;20033;-77
2022/05/22 06:15:52;;;;;;;12.38;7.63;;;;;;;12.38;78.17;101687.66;5006038;28;20022;-77
2022/05/22 06:18:18;;;;;;;12.63;7.65;;;;;;;12.46;77.17;101688.38;5008417;28;20493;-77
2022/05/22 06:20:44;;;;;;;13.63;7.70;;;;;;;12.56;77.28;101689.03;5006470;28;20092;-77
2022/05/22 06:23:09;;;;;;;12.27;7.53;;;;;;;12.64;77.57;101687.13;5007383;28;20513;-77
2022/05/22 06:25:35;;;;;;;14.27;8.18;;;;;;;12.72;77.18;101684.38;5003184;28;20033;-77
2022/05/22 06:28:01;;;;;;;12.93;7.97;;;;;;;12.79;76.08;101678.13;5002748;28;20034;-77
2022/05/22 06:30:26;;;;;;;14.75;7.47;;;;;;;12.83;76.25;101681.53;5003534;28;20038;-77
2022/05/22 06:32:52;;;;;;;17.40;7.97;;;;;;;12.88;75.13;101696.19;5005571;28;20037;-77
2022/05/22 06:35:18;;;;;;;12.15;8.02;;;;;;;12.94;76.15;101694.34;5007730;28;20032;-77
2022/05/22 06:37:43;;;;;;;12.30;8.15;;;;;;;13.00;76.07;101687.25;5007214;28;20030;-77
2022/05/22 06:40:09;;;;;;;12.75;7.93;;;;;;;13.09;75.76;101688.78;5004851;28;20044;-77
2022/05/22 06:42:44;;;;;;;10.00;7.53;;;;;;;13.14;76.04;101689.56;5005547;28;20041;-77
2022/05/22 06:45:14;;;;;;;10.75;7.93;;;;;;;13.18;75.00;101695.56;5006412;28;20041;-77
2022/05/22 06:47:42;;;;;;;11.95;7.40;;;;;;;13.23;75.83;101692.84;5004261;28;20494;-77
2022/05/22 06:50:16;;;;;;;12.98;7.82;;;;;;;13.30;75.47;101697.03;5004770;28;20041;-77
2022/05/22 06:52:42;;;;;;;13.45;7.93;;;;;;;13.37;75.27;101695.97;5001746;28;20041;-77
2022/05/22 06:55:08;;;;;;;13.05;7.70;;;;;;;13.43;75.46;101695.88;5005756;28;20026;-77
2022/05/22 06:57:34;;;;;;;12.55;7.25;;;;;;;13.49;74.48;101698.31;5006307;28;20041;-77
2022/05/22 06:59:59;;;;;;;13.32;7.65;;;;;;;13.57;74.06;101702.50;5003597;28;20044;-77
2022/05/22 07:02:29;;;;;;;14.02;7.97;;;;;;;13.64;73.57;101696.25;5007529;28;20052;-77
2022/05/22 07:05:01;;;;;;;14.18;7.50;;;;;;;13.69;73.26;101694.34;5004600;28;20030;-77
2022/05/22 07:07:27;;;;;;;11.32;7.40;;;;;;;13.75;73.47;101694.22;5004772;28;20369;-77
2022/05/22 07:09:53;;;;;;;13.57;7.30;;;;;;;13.80;72.97;101701.94;5005470;28;20075;-77
2022/05/22 07:12:19;;;;;;;10.02;6.65;;;;;;;13.89;74.00;101695.59;5001054;28;20468;-77
2022/05/22 07:14:47;;;;;;;9.85;7.00;;;;;;;13.95;72.45;101695.47;5004532;28;20033;-77
2022/05/22 07:17:13;;;;;;;13.20;7.45;;;;;;;14.02;74.61;101697.00;5003021;28;20041;-77
2022/05/22 07:19:40;;;;;;;10.30;7.13;;;;;;;14.11;72.97;101683.69;5003733;28;20037;-77
2022/05/22 07:22:06;;;;;;;13.00;6.97;;;;;;;14.21;72.29;101680.81;5001651;28;20030;-77
2022/05/22 07:24:33;;;;;;;11.75;7.35;;;;;;;14.32;72.75;101688.38;5005292;28;20030;-77
2022/05/22 07:26:58;;;;;;;13.50;7.13;;;;;;;14.38;71.90;101686.44;5003013;28;20052;-77
2022/05/22 07:29:23;;;;;;;12.32;7.32;;;;;;;14.48;72.33;101691.41;5004406;28;20113;-77
2022/05/22 07:31:49;;;;;;;15.18;7.88;;;;;;;14.55;73.48;101682.47;5000781;28;20025;-77
2022/05/22 07:34:14;;;;;;;12.70;7.10;;;;;;;14.64;72.45;101690.06;4998912;28;20038;-77
2022/05/22 07:36:40;;;;;;;12.55;7.22;;;;;;;14.71;71.14;101689.00;4999044;28;20029;-76
2022/05/22 07:39:06;;;;;;;12.95;6.90;;;;;;;14.75;70.56;101681.94;4998782;28;20095;-76
2022/05/22 07:41:31;;;;;;;11.63;7.10;;;;;;;14.81;70.19;101680.88;5002819;28;20035;-76
2022/05/22 07:43:57;;;;;;;11.25;7.40;;;;;;;14.87;70.88;101680.69;5003970;28;20037;-77
2022/05/22 07:46:23;;;;;;;12.50;6.85;;;;;;;14.93;69.38;101679.66;5002628;28;20029;-77
2022/05/22 07:48:48;;;;;;;14.88;7.53;;;;;;;14.96;69.49;101669.06;5001902;28;20038;-77
2022/05/22 07:51:14;;;;;;;9.80;6.57;;;;;;;15.00;69.01;101681.19;5003617;28;20140;-77
2022/05/22 07:53:40;;;;;;;14.43;6.38;;;;;;;15.03;67.80;101678.47;5003595;28;20044;-77
2022/05/22 07:56:06;;;;;;;9.18;5.75;;;;;;;15.09;66.92;101674.78;5002133;28;20033;-76
2022/05/22 07:58:33;;;;;;;8.57;5.88;;;;;;;15.14;66.93;101672.91;5003434;28;20022;-77
2022/05/22 08:00:59;;;;;;;10.82;5.72;;;;;;;15.18;65.92;101670.13;5002597;28;20079;-77
2022/05/22 08:03:24;;;;;;;9.50;5.95;;;;;;;15.23;66.00;101661.25;5004741;28;21308;-77
2022/05/22 08:05:51;;;;;;;8.85;5.53;;;;;;;15.28;65.67;101659.34;5001911;28;20141;-77
2022/05/22 08:08:17;;;;;;;10.48;5.13;;;;;;;15.30;65.03;101661.00;5001589;28;20050;-76
2022/05/22 08:10:42;;;;;;;8.65;5.18;;;;;;;15.30;63.87;101658.38;5004008;28;20043;-77
2022/05/22 08:13:09;;;;;;;11.93;5.30;;;;;;;15.30;63.74;101663.63;5000442;28;20033;-76
2022/05/22 08:15:36;;;;;;;9.32;5.60;;;;;;;15.30;63.65;101663.63;4998978;28;20083;-76
2022/05/22 08:18:03;;;;;;;8.30;5.20;;;;;;;15.29;64.20;101661.03;5001992;28;20030;-77
2022/05/22 08:20:33;;;;;;;8.27;4.90;;;;;;;15.31;65.65;101653.97;5000950;28;20050;-77
2022/05/22 08:23:02;;;;;;;7.82;4.15;;;;;;;15.32;62.52;101643.47;5001816;28;20036;-76
2022/05/22 08:25:28;;;;;;;6.75;4.05;;;;;;;15.40;62.08;101644.97;5000873;28;20033;-77
2022/05/22 08:27:55;;;;;;;9.95;4.35;;;;;;;15.47;62.84;101638.63;5001458;28;20131;-77
2022/05/22 08:30:21;;;;;;;10.65;4.70;;;;;;;15.53;63.01;101633.19;5003661;28;20052;-77
2022/05/22 08:32:48;;;;;;;7.93;4.18;;;;;;;15.61;62.21;101630.28;5005460;28;20033;-76
2022/05/22 08:35:18;;;;;;;7.13;4.20;;;;;;;15.68;61.82;101630.94;5002719;28;20026;-77
2022/05/22 08:37:43;;;;;;;10.10;4.68;;;;;;;15.73;61.00;101624.63;5004124;28;20026;-77
2022/05/22 08:40:12;;;;;;;8.93;4.10;;;;;;;15.78;61.75;101622.69;5003987;28;20036;-77
2022/05/22 08:42:46;;;;;;;7.65;4.00;;;;;;;15.87;62.59;101618.91;5001853;28;20026;-77
2022/05/22 08:45:23;;;;;;;8.18;3.88;;;;;;;16.00;62.01;101615.84;5002174;28;20037;-78
2022/05/22 08:48:06;;;;;;;9.13;3.58;;;;;;;16.07;60.09;101612.06;5002111;28;20050;-77
2022/05/22 08:50:33;;;;;;;7.50;3.55;;;;;;;16.14;60.43;101602.22;5000736;28;20041;-77
2022/05/22 08:53:04;;;;;;;8.02;3.42;;;;;;;16.20;59.00;101600.22;5007309;28;20596;-77
2022/05/22 09:01:23;;;;;;;7.18;3.45;;;;;;;16.35;59.11;101596.16;5005244;28;20052;-79
2022/05/22 09:04:00;;;;;;;6.88;3.80;;;;;;;16.34;58.93;101583.09;5003827;28;20029;-79
2022/05/22 09:06:32;;;;;;;9.13;4.43;;;;;;;16.39;57.96;101589.88;5002356;28;20072;-79
2022/05/22 09:08:58;;;;;;;6.72;3.25;;;;;;;16.46;59.17;101584.41;5004834;28;20064;-78
2022/05/22 09:11:42;;;;;;;8.68;3.95;;;;;;;16.52;58.38;101582.38;5003658;28;20433;-77
2022/05/22 09:14:23;;;;;;;10.05;3.95;;;;;;;16.59;58.40;101569.88;5002996;28;20073;-79
2022/05/22 09:17:10;;;;;;;8.17;4.23;;;;;;;16.66;59.39;101568.69;4999786;28;20080;-79
2022/05/22 09:20:04;;;;;;;8.23;3.63;;;;;;;16.72;58.86;101570.25;5003548;28;21533;-79
2022/05/22 09:22:35;;;;;;;6.70;3.50;;;;;;;16.76;58.07;101569.19;5005229;28;20025;-79
2022/05/22 09:25:13;;;;;;;8.35;3.65;;;;;;;16.82;57.24;101562.84;5005570;28;20049;-78
2022/05/22 09:27:54;;;;;;;9.70;4.60;;;;;;;16.90;57.85;101559.91;5004926;28;20030;-79
2022/05/22 09:30:31;;;;;;;8.70;4.13;;;;;;;17.01;57.70;101568.22;5003788;28;20616;-78
2022/05/22 09:33:17;;;;;;;8.98;4.70;;;;;;;17.09;57.69;101560.00;5005118;28;20026;-78
2022/05/22 09:36:07;;;;;;;21.60;6.75;;;;;;;17.17;57.96;101571.06;5004589;28;20049;-78
2022/05/22 09:39:17;;;;;;;11.75;4.75;;;;;;;17.25;57.91;101560.25;5005250;28;20103;-78
2022/05/22 09:41:48;;;;;;;8.32;4.25;;;;;;;17.26;56.36;101552.28;5002606;28;20473;-77
2022/05/22 09:44:29;;;;;;;15.27;4.90;;;;;;;17.33;55.94;101558.13;5006013;28;20026;-78
2022/05/22 09:47:13;;;;;;;;;;;;;;;17.38;58.70;101556.16;5006750;28;20790;-79
2022/05/22 09:50:05;;;;;;;9.02;4.38;;;;;;;17.40;56.24;101549.06;5003650;28;19926;-77
2022/05/22 09:52:54;;;;;;;8.23;4.07;;;;;;;17.48;57.26;101548.72;5003135;28;20611;-78
2022/05/22 09:55:26;;;;;;;6.85;4.20;;;;;;;17.53;56.23;101552.00;5004025;28;20652;-79
2022/05/22 09:58:23;;;;;;;7.95;4.20;;;;;;;17.58;57.18;101543.91;5002326;28;20026;-79
2022/05/22 10:01:03;;;;;;;7.60;4.03;;;;;;;17.59;56.45;101543.00;4987951;28;20041;-78
2022/05/22 10:04:09;;;;;;;8.82;4.55;;;;;;;17.58;56.41;101546.56;5004894;28;20164;-79
2022/05/22 10:06:55;;;;;;;9.82;4.20;;;;;;;17.55;56.28;101546.69;5001108;28;20046;-79
2022/05/22 10:09:58;;;;;;;7.35;4.13;;;;;;;17.56;56.62;101537.88;5004472;28;20069;-78
2022/05/22 10:12:38;;;;;;;8.10;4.53;;;;;;;17.54;55.16;101548.44;5003216;28;20028;-77
2022/05/22 10:15:34;;;;;;;11.55;5.05;;;;;;;17.56;55.55;101536.06;5004187;28;20033;-77
2022/05/22 10:18:07;;;;;;;7.82;4.72;;;;;;;17.58;55.56;101541.28;5003048;28;20034;-77
2022/05/22 10:21:04;;;;;;;11.05;4.97;;;;;;;17.60;56.58;101534.16;5003476;28;20087;-77
2022/05/22 10:23:52;;;;;;;8.98;4.97;;;;;;;17.62;54.94;101540.19;5003995;28;20061;-78
2022/05/22 10:27:00;;;;;;;8.80;4.43;;;;;;;17.66;55.21;101531.25;5000945;28;20036;-78
2022/05/22 10:29:33;;;;;;;8.80;4.43;;;;;;;17.68;55.54;101526.78;4982689;28;20136;-79
2022/05/22 10:32:15;;;;;;;8.15;4.32;;;;;;;17.73;55.97;101535.34;5002559;28;20056;-79
2022/05/22 10:35:06;;;;;;;9.35;4.63;;;;;;;17.79;55.70;101526.31;5004941;28;20030;-77
2022/05/22 10:37:41;;;;;;;6.88;4.22;;;;;;;17.80;54.08;101520.13;5002236;28;20032;-78
2022/05/22 10:40:12;;;;;;;10.65;5.03;;;;;;;17.84;54.90;101512.94;5001142;28;20034;-78
2022/05/22 10:42:46;;;;;;;8.25;4.82;;;;;;;17.85;53.45;101512.84;4996691;28;20711;-77
2022/05/22 10:45:32;;;;;;;11.15;5.40;;;;;;;17.89;54.43;101509.16;5001750;28;20083;-78
2022/05/22 10:48:23;;;;;;;11.43;5.28;;;;;;;17.89;54.71;101514.41;5001847;28;20049;-78
2022/05/22 10:51:02;;;;;;;9.57;5.35;;;;;;;17.88;54.83;101506.59;5004394;28;20069;-77
2022/05/22 10:53:48;;;;;;;9.30;4.95;;;;;;;17.91;54.79;101501.22;5005735;28;20508;-77
2022/05/22 10:56:13;;;;;;;8.13;5.13;;;;;;;17.89;52.70;101487.25;5004205;28;20057;-78
2022/05/22 10:58:40;;;;;;;8.50;4.80;;;;;;;17.92;53.19;101481.84;5003174;28;20144;-77
2022/05/22 11:01:16;;;;;;;11.68;5.50;;;;;;;17.95;52.80;101471.16;5005431;28;20037;-78
2022/05/22 11:03:41;;;;;;;7.90;4.68;;;;;;;17.97;51.92;101474.56;5004298;28;20026;-78
2022/05/22 11:06:22;;;;;;;9.85;5.40;;;;;;;17.99;53.75;101472.75;5003751;28;20045;-78
2022/05/22 11:08:55;;;;;;;8.52;4.97;;;;;;;18.07;53.79;101476.81;5004859;28;20034;-77
2022/05/22 11:11:26;;;;;;;8.85;4.88;;;;;;;18.14;52.11;101473.81;5004685;28;20075;-77
2022/05/22 11:13:52;;;;;;;7.78;4.85;;;;;;;18.19;50.33;101469.16;5004793;28;20038;-77
2022/05/22 11:16:24;;;;;;;8.13;4.75;;;;;;;18.20;51.63;101468.25;5002933;28;20026;-78
2022/05/22 11:19:02;;;;;;;11.65;4.95;;;;;;;18.17;52.18;101467.56;5004303;28;20026;-77
2022/05/22 11:21:48;;;;;;;8.00;4.97;;;;;;;18.17;52.54;101468.41;5003562;28;20041;-77
2022/05/22 11:24:35;;;;;;;9.60;4.78;;;;;;;18.17;54.09;101464.91;5004475;28;20030;-78
2022/05/22 11:27:37;;;;;;;7.30;4.78;;;;;;;18.25;52.58;101462.78;5007064;28;20124;-78
2022/05/22 11:30:16;;;;;;;16.42;4.90;;;;;;;18.37;53.31;101460.47;5006777;28;20041;-78
2022/05/22 11:32:59;;;;;;;8.45;4.68;;;;;;;18.44;51.63;101451.34;5009032;28;20489;-77
2022/05/22 11:35:32;;;;;;;7.38;4.38;;;;;;;18.44;51.14;101454.81;5003428;28;20493;-77
2022/05/22 11:38:33;;;;;;;8.18;4.72;;;;;;;18.50;51.59;101440.50;5007558;28;20030;-78
2022/05/22 11:41:01;;;;;;;8.18;4.88;;;;;;;18.59;51.32;101439.19;5006683;28;20096;-78
2022/05/22 11:43:48;;;;;;;8.50;3.80;;;;;;;18.68;52.31;101435.22;5005293;28;20485;-78